sensor_id;sensor_type;location;lat;lon;timestamp;P1;durP1;ratioP1;P2;durP2;ratioP2
74908;SDS011;63468;52.058;4.824;2023-03-20T00:01:11;12.88;;;7.10;;
74908;SDS011;63468;52.058;4.824;2023-03-20T00:03:55;18.48;;;7.78;;
74908;SDS011;63468;52.058;4.824;2023-03-20T00:06:24;24.27;;;9.30;;
74908;SDS011;63468;52.058;4.824;2023-03-20T00:08:52;29.67;;;11.55;;
74908;SDS011;63468;52.058;4.824;2023-03-20T00:11:24;20.08;;;9.52;;
74908;SDS011;63468;52.058;4.824;2023-03-20T00:13:51;21.38;;;8.77;;
74908;SDS011;63468;52.058;4.824;2023-03-20T00:16:17;19.17;;;9.13;;
74908;SDS011;63468;52.058;4.824;2023-03-20T00:18:42;16.38;;;6.97;;
74908;SDS011;63468;52.058;4.824;2023-03-20T00:21:11;16.45;;;7.35;;
74908;SDS011;63468;52.058;4.824;2023-03-20T00:23:41;19.73;;;8.00;;
74908;SDS011;63468;52.058;4.824;2023-03-20T00:26:08;20.48;;;7.80;;
74908;SDS011;63468;52.058;4.824;2023-03-20T00:28:45;19.38;;;8.73;;
74908;SDS011;63468;52.058;4.824;2023-03-20T00:31:31;15.55;;;8.18;;
74908;SDS011;63468;52.058;4.824;2023-03-20T00:33:59;18.58;;;7.65;;
74908;SDS011;63468;52.058;4.824;2023-03-20T00:36:26;20.15;;;8.40;;
74908;SDS011;63468;52.058;4.824;2023-03-20T00:38:52;18.27;;;7.63;;
74908;SDS011;63468;52.058;4.824;2023-03-20T00:41:28;17.73;;;8.20;;
74908;SDS011;63468;52.058;4.824;2023-03-20T00:43:57;19.88;;;9.07;;
74908;SDS011;63468;52.058;4.824;2023-03-20T00:46:24;22.25;;;9.20;;
74908;SDS011;63468;52.058;4.824;2023-03-20T00:48:49;20.98;;;8.75;;
74908;SDS011;63468;52.058;4.824;2023-03-20T00:51:15;23.13;;;9.25;;
74908;SDS011;63468;52.058;4.824;2023-03-20T00:53:41;25.55;;;9.85;;
74908;SDS011;63468;52.058;4.824;2023-03-20T00:56:09;17.33;;;7.40;;
74908;SDS011;63468;52.058;4.824;2023-03-20T00:59:03;22.02;;;11.05;;
74908;SDS011;63468;52.058;4.824;2023-03-20T01:01:29;26.73;;;11.23;;
74908;SDS011;63468;52.058;4.824;2023-03-20T01:03:56;19.20;;;9.57;;
74908;SDS011;63468;52.058;4.824;2023-03-20T01:06:22;20.40;;;9.07;;
74908;SDS011;63468;52.058;4.824;2023-03-20T01:08:47;22.85;;;9.77;;
74908;SDS011;63468;52.058;4.824;2023-03-20T01:11:13;24.33;;;10.88;;
74908;SDS011;63468;52.058;4.824;2023-03-20T01:13:41;26.30;;;10.25;;
74908;SDS011;63468;52.058;4.824;2023-03-20T01:16:12;24.45;;;9.80;;
74908;SDS011;63468;52.058;4.824;2023-03-20T01:18:43;29.65;;;10.18;;
74908;SDS011;63468;52.058;4.824;2023-03-20T01:21:08;31.50;;;11.93;;
74908;SDS011;63468;52.058;4.824;2023-03-20T01:23:34;24.10;;;11.05;;
74908;SDS011;63468;52.058;4.824;2023-03-20T01:25:59;24.23;;;9.85;;
74908;SDS011;63468;52.058;4.824;2023-03-20T01:28:24;27.95;;;12.55;;
74908;SDS011;63468;52.058;4.824;2023-03-20T01:30:50;23.15;;;10.20;;
74908;SDS011;63468;52.058;4.824;2023-03-20T01:33:18;24.65;;;10.48;;
74908;SDS011;63468;52.058;4.824;2023-03-20T01:35:45;25.95;;;10.93;;
74908;SDS011;63468;52.058;4.824;2023-03-20T01:38:11;27.55;;;10.50;;
74908;SDS011;63468;52.058;4.824;2023-03-20T01:43:18;32.05;;;10.13;;
74908;SDS011;63468;52.058;4.824;2023-03-20T01:45:48;23.75;;;10.07;;
74908;SDS011;63468;52.058;4.824;2023-03-20T01:51:22;31.88;;;11.82;;
74908;SDS011;63468;52.058;4.824;2023-03-20T01:53:51;32.03;;;12.00;;
74908;SDS011;63468;52.058;4.824;2023-03-20T01:56:19;29.85;;;12.93;;
74908;SDS011;63468;52.058;4.824;2023-03-20T01:58:46;32.75;;;13.10;;
74908;SDS011;63468;52.058;4.824;2023-03-20T02:01:14;32.75;;;12.77;;
74908;SDS011;63468;52.058;4.824;2023-03-20T02:03:40;32.90;;;13.25;;
74908;SDS011;63468;52.058;4.824;2023-03-20T02:06:07;32.25;;;13.77;;
74908;SDS011;63468;52.058;4.824;2023-03-20T02:08:34;33.95;;;14.35;;
74908;SDS011;63468;52.058;4.824;2023-03-20T02:11:01;35.15;;;16.40;;
74908;SDS011;63468;52.058;4.824;2023-03-20T02:13:28;36.17;;;15.38;;
74908;SDS011;63468;52.058;4.824;2023-03-20T02:15:56;32.35;;;14.80;;
74908;SDS011;63468;52.058;4.824;2023-03-20T02:18:29;32.83;;;15.35;;
74908;SDS011;63468;52.058;4.824;2023-03-20T02:43:03;38.08;;;14.45;;
74908;SDS011;63468;52.058;4.824;2023-03-20T02:48:38;33.22;;;15.88;;
74908;SDS011;63468;52.058;4.824;2023-03-20T02:51:22;32.83;;;15.07;;
74908;SDS011;63468;52.058;4.824;2023-03-20T02:54:30;34.42;;;15.32;;
74908;SDS011;63468;52.058;4.824;2023-03-20T03:02:44;33.83;;;14.90;;
74908;SDS011;63468;52.058;4.824;2023-03-20T03:05:14;37.00;;;15.77;;
74908;SDS011;63468;52.058;4.824;2023-03-20T03:07:43;33.00;;;15.70;;
74908;SDS011;63468;52.058;4.824;2023-03-20T03:10:11;38.42;;;16.80;;
74908;SDS011;63468;52.058;4.824;2023-03-20T03:12:46;36.92;;;16.17;;
74908;SDS011;63468;52.058;4.824;2023-03-20T03:15:14;35.33;;;17.33;;
74908;SDS011;63468;52.058;4.824;2023-03-20T03:17:43;34.15;;;15.13;;
74908;SDS011;63468;52.058;4.824;2023-03-20T03:22:48;29.88;;;13.98;;
74908;SDS011;63468;52.058;4.824;2023-03-20T03:25:13;35.65;;;15.25;;
74908;SDS011;63468;52.058;4.824;2023-03-20T03:27:40;37.25;;;14.40;;
74908;SDS011;63468;52.058;4.824;2023-03-20T03:30:12;29.00;;;14.27;;
74908;SDS011;63468;52.058;4.824;2023-03-20T03:32:48;35.47;;;13.95;;
74908;SDS011;63468;52.058;4.824;2023-03-20T03:35:16;32.83;;;13.90;;
74908;SDS011;63468;52.058;4.824;2023-03-20T03:38:00;27.52;;;12.60;;
74908;SDS011;63468;52.058;4.824;2023-03-20T03:40:32;34.80;;;14.15;;
74908;SDS011;63468;52.058;4.824;2023-03-20T03:43:06;30.00;;;14.45;;
74908;SDS011;63468;52.058;4.824;2023-03-20T03:45:43;30.27;;;11.93;;
74908;SDS011;63468;52.058;4.824;2023-03-20T03:48:16;27.35;;;12.88;;
74908;SDS011;63468;52.058;4.824;2023-03-20T03:50:51;30.35;;;13.73;;
74908;SDS011;63468;52.058;4.824;2023-03-20T03:53:22;28.33;;;13.38;;
74908;SDS011;63468;52.058;4.824;2023-03-20T03:55:49;27.50;;;13.03;;
74908;SDS011;63468;52.058;4.824;2023-03-20T03:58:25;27.10;;;12.43;;
74908;SDS011;63468;52.058;4.824;2023-03-20T04:00:53;35.80;;;14.05;;
74908;SDS011;63468;52.058;4.824;2023-03-20T04:03:20;26.55;;;13.88;;
74908;SDS011;63468;52.058;4.824;2023-03-20T04:05:48;31.35;;;13.45;;
74908;SDS011;63468;52.058;4.824;2023-03-20T04:08:16;30.75;;;13.90;;
74908;SDS011;63468;52.058;4.824;2023-03-20T04:10:41;33.50;;;15.18;;
74908;SDS011;63468;52.058;4.824;2023-03-20T04:13:06;26.33;;;13.70;;
74908;SDS011;63468;52.058;4.824;2023-03-20T04:15:32;29.15;;;13.20;;
74908;SDS011;63468;52.058;4.824;2023-03-20T04:17:57;28.52;;;13.15;;
74908;SDS011;63468;52.058;4.824;2023-03-20T04:20:22;25.20;;;13.95;;
74908;SDS011;63468;52.058;4.824;2023-03-20T04:22:48;31.15;;;14.75;;
74908;SDS011;63468;52.058;4.824;2023-03-20T04:25:23;27.60;;;14.68;;
74908;SDS011;63468;52.058;4.824;2023-03-20T04:27:50;32.65;;;15.57;;
74908;SDS011;63468;52.058;4.824;2023-03-20T04:30:15;30.50;;;15.25;;
74908;SDS011;63468;52.058;4.824;2023-03-20T04:32:41;27.85;;;15.75;;
74908;SDS011;63468;52.058;4.824;2023-03-20T04:35:06;28.15;;;15.90;;
74908;SDS011;63468;52.058;4.824;2023-03-20T04:37:32;29.65;;;15.60;;
74908;SDS011;63468;52.058;4.824;2023-03-20T04:39:57;31.88;;;16.20;;
74908;SDS011;63468;52.058;4.824;2023-03-20T04:42:23;29.33;;;14.50;;
74908;SDS011;63468;52.058;4.824;2023-03-20T04:44:48;28.92;;;16.17;;
74908;SDS011;63468;52.058;4.824;2023-03-20T04:47:13;28.52;;;15.40;;
74908;SDS011;63468;52.058;4.824;2023-03-20T04:49:39;34.95;;;16.15;;
74908;SDS011;63468;52.058;4.824;2023-03-20T04:52:04;32.95;;;15.35;;
74908;SDS011;63468;52.058;4.824;2023-03-20T04:54:29;27.30;;;15.07;;
74908;SDS011;63468;52.058;4.824;2023-03-20T04:56:55;32.05;;;16.52;;
74908;SDS011;63468;52.058;4.824;2023-03-20T04:59:20;31.83;;;17.85;;
74908;SDS011;63468;52.058;4.824;2023-03-20T05:01:45;31.23;;;16.75;;
74908;SDS011;63468;52.058;4.824;2023-03-20T05:04:11;33.33;;;17.05;;
74908;SDS011;63468;52.058;4.824;2023-03-20T05:06:36;28.95;;;15.27;;
74908;SDS011;63468;52.058;4.824;2023-03-20T05:09:02;29.25;;;15.88;;
74908;SDS011;63468;52.058;4.824;2023-03-20T05:11:28;33.08;;;16.73;;
74908;SDS011;63468;52.058;4.824;2023-03-20T05:13:53;35.72;;;17.20;;
74908;SDS011;63468;52.058;4.824;2023-03-20T05:16:18;26.63;;;15.63;;
74908;SDS011;63468;52.058;4.824;2023-03-20T05:18:44;32.67;;;18.20;;
74908;SDS011;63468;52.058;4.824;2023-03-20T05:21:09;31.83;;;17.30;;
74908;SDS011;63468;52.058;4.824;2023-03-20T05:23:34;33.58;;;18.60;;
74908;SDS011;63468;52.058;4.824;2023-03-20T05:26:00;32.90;;;18.42;;
74908;SDS011;63468;52.058;4.824;2023-03-20T05:28:25;31.05;;;17.90;;
74908;SDS011;63468;52.058;4.824;2023-03-20T05:30:51;33.60;;;18.17;;
74908;SDS011;63468;52.058;4.824;2023-03-20T05:33:16;34.55;;;18.73;;
74908;SDS011;63468;52.058;4.824;2023-03-20T05:35:42;39.65;;;18.42;;
74908;SDS011;63468;52.058;4.824;2023-03-20T05:38:07;39.33;;;20.85;;
74908;SDS011;63468;52.058;4.824;2023-03-20T05:40:32;39.58;;;19.50;;
74908;SDS011;63468;52.058;4.824;2023-03-20T05:42:58;36.38;;;20.73;;
74908;SDS011;63468;52.058;4.824;2023-03-20T05:45:23;37.08;;;21.33;;
74908;SDS011;63468;52.058;4.824;2023-03-20T05:47:48;36.45;;;19.48;;
74908;SDS011;63468;52.058;4.824;2023-03-20T05:50:14;29.45;;;19.17;;
74908;SDS011;63468;52.058;4.824;2023-03-20T05:52:39;40.50;;;20.00;;
74908;SDS011;63468;52.058;4.824;2023-03-20T05:55:05;36.55;;;20.23;;
74908;SDS011;63468;52.058;4.824;2023-03-20T05:57:30;34.20;;;18.77;;
74908;SDS011;63468;52.058;4.824;2023-03-20T05:59:55;37.08;;;19.55;;
74908;SDS011;63468;52.058;4.824;2023-03-20T06:02:21;30.27;;;18.48;;
74908;SDS011;63468;52.058;4.824;2023-03-20T06:04:46;32.28;;;18.58;;
74908;SDS011;63468;52.058;4.824;2023-03-20T06:07:12;41.20;;;20.98;;
74908;SDS011;63468;52.058;4.824;2023-03-20T06:09:37;33.65;;;18.40;;
74908;SDS011;63468;52.058;4.824;2023-03-20T06:12:02;32.10;;;17.83;;
74908;SDS011;63468;52.058;4.824;2023-03-20T06:14:28;34.50;;;18.60;;
74908;SDS011;63468;52.058;4.824;2023-03-20T06:16:53;37.22;;;19.40;;
74908;SDS011;63468;52.058;4.824;2023-03-20T06:19:19;42.80;;;18.35;;
74908;SDS011;63468;52.058;4.824;2023-03-20T06:21:45;33.40;;;17.85;;
74908;SDS011;63468;52.058;4.824;2023-03-20T06:24:11;38.70;;;20.58;;
74908;SDS011;63468;52.058;4.824;2023-03-20T06:26:36;35.90;;;17.65;;
74908;SDS011;63468;52.058;4.824;2023-03-20T06:29:02;32.67;;;16.98;;
74908;SDS011;63468;52.058;4.824;2023-03-20T06:31:27;37.67;;;18.48;;
74908;SDS011;63468;52.058;4.824;2023-03-20T06:33:53;31.88;;;17.35;;
74908;SDS011;63468;52.058;4.824;2023-03-20T06:36:18;33.78;;;17.00;;
74908;SDS011;63468;52.058;4.824;2023-03-20T06:38:43;31.83;;;17.52;;
74908;SDS011;63468;52.058;4.824;2023-03-20T06:41:09;35.38;;;18.00;;
74908;SDS011;63468;52.058;4.824;2023-03-20T06:43:34;29.35;;;17.02;;
74908;SDS011;63468;52.058;4.824;2023-03-20T06:45:59;31.80;;;16.88;;
74908;SDS011;63468;52.058;4.824;2023-03-20T06:48:25;35.25;;;16.10;;
74908;SDS011;63468;52.058;4.824;2023-03-20T06:50:50;30.38;;;16.35;;
74908;SDS011;63468;52.058;4.824;2023-03-20T06:53:16;30.08;;;16.35;;
74908;SDS011;63468;52.058;4.824;2023-03-20T06:55:42;28.10;;;14.85;;
74908;SDS011;63468;52.058;4.824;2023-03-20T06:58:10;28.02;;;15.00;;
74908;SDS011;63468;52.058;4.824;2023-03-20T07:00:36;29.00;;;15.75;;
74908;SDS011;63468;52.058;4.824;2023-03-20T07:03:01;30.27;;;14.50;;
74908;SDS011;63468;52.058;4.824;2023-03-20T07:05:27;32.95;;;14.13;;
74908;SDS011;63468;52.058;4.824;2023-03-20T07:07:52;27.42;;;14.50;;
74908;SDS011;63468;52.058;4.824;2023-03-20T07:10:18;27.45;;;13.60;;
74908;SDS011;63468;52.058;4.824;2023-03-20T07:12:43;31.33;;;13.23;;
74908;SDS011;63468;52.058;4.824;2023-03-20T07:15:09;28.88;;;14.43;;
74908;SDS011;63468;52.058;4.824;2023-03-20T07:17:35;28.80;;;14.10;;
74908;SDS011;63468;52.058;4.824;2023-03-20T07:20:01;28.15;;;13.07;;
74908;SDS011;63468;52.058;4.824;2023-03-20T07:22:27;25.90;;;12.60;;
74908;SDS011;63468;52.058;4.824;2023-03-20T07:24:53;23.23;;;12.30;;
74908;SDS011;63468;52.058;4.824;2023-03-20T07:27:19;26.20;;;13.18;;
74908;SDS011;63468;52.058;4.824;2023-03-20T07:29:45;27.73;;;12.60;;
74908;SDS011;63468;52.058;4.824;2023-03-20T07:32:10;21.38;;;13.05;;
74908;SDS011;63468;52.058;4.824;2023-03-20T07:34:36;26.20;;;12.40;;
74908;SDS011;63468;52.058;4.824;2023-03-20T07:37:01;22.73;;;12.18;;
74908;SDS011;63468;52.058;4.824;2023-03-20T07:39:26;23.77;;;12.25;;
74908;SDS011;63468;52.058;4.824;2023-03-20T07:41:52;25.30;;;11.73;;
74908;SDS011;63468;52.058;4.824;2023-03-20T07:44:17;23.92;;;10.95;;
74908;SDS011;63468;52.058;4.824;2023-03-20T07:46:43;22.95;;;10.75;;
74908;SDS011;63468;52.058;4.824;2023-03-20T07:49:11;29.10;;;12.07;;
74908;SDS011;63468;52.058;4.824;2023-03-20T07:51:37;23.52;;;9.60;;
74908;SDS011;63468;52.058;4.824;2023-03-20T07:54:03;26.23;;;9.43;;
74908;SDS011;63468;52.058;4.824;2023-03-20T07:56:28;21.63;;;9.73;;
74908;SDS011;63468;52.058;4.824;2023-03-20T07:58:53;22.58;;;10.45;;
74908;SDS011;63468;52.058;4.824;2023-03-20T08:01:19;25.80;;;10.57;;
74908;SDS011;63468;52.058;4.824;2023-03-20T08:03:44;30.38;;;11.80;;
74908;SDS011;63468;52.058;4.824;2023-03-20T08:06:09;18.65;;;9.80;;
74908;SDS011;63468;52.058;4.824;2023-03-20T08:08:35;21.08;;;9.77;;
74908;SDS011;63468;52.058;4.824;2023-03-20T08:11:00;24.38;;;10.43;;
74908;SDS011;63468;52.058;4.824;2023-03-20T08:13:26;17.92;;;10.02;;
74908;SDS011;63468;52.058;4.824;2023-03-20T08:15:51;24.63;;;10.77;;
74908;SDS011;63468;52.058;4.824;2023-03-20T08:18:16;19.17;;;9.95;;
74908;SDS011;63468;52.058;4.824;2023-03-20T08:20:43;20.10;;;9.95;;
74908;SDS011;63468;52.058;4.824;2023-03-20T08:23:09;26.30;;;11.10;;
74908;SDS011;63468;52.058;4.824;2023-03-20T08:25:35;23.10;;;10.68;;
74908;SDS011;63468;52.058;4.824;2023-03-20T08:28:01;19.60;;;9.95;;
74908;SDS011;63468;52.058;4.824;2023-03-20T08:30:26;20.98;;;9.95;;
74908;SDS011;63468;52.058;4.824;2023-03-20T08:32:52;23.50;;;9.77;;
74908;SDS011;63468;52.058;4.824;2023-03-20T08:35:17;21.00;;;11.45;;
74908;SDS011;63468;52.058;4.824;2023-03-20T08:37:43;22.98;;;9.20;;
74908;SDS011;63468;52.058;4.824;2023-03-20T08:40:09;25.13;;;12.52;;
74908;SDS011;63468;52.058;4.824;2023-03-20T08:42:35;21.25;;;9.52;;
74908;SDS011;63468;52.058;4.824;2023-03-20T08:45:01;21.05;;;9.57;;
74908;SDS011;63468;52.058;4.824;2023-03-20T08:47:26;19.92;;;8.02;;
74908;SDS011;63468;52.058;4.824;2023-03-20T08:49:51;19.17;;;8.55;;
74908;SDS011;63468;52.058;4.824;2023-03-20T08:52:16;20.05;;;10.27;;
74908;SDS011;63468;52.058;4.824;2023-03-20T08:54:42;22.88;;;10.70;;
74908;SDS011;63468;52.058;4.824;2023-03-20T08:57:07;25.30;;;9.55;;
74908;SDS011;63468;52.058;4.824;2023-03-20T08:59:32;20.05;;;9.77;;
74908;SDS011;63468;52.058;4.824;2023-03-20T09:01:58;27.48;;;11.32;;
74908;SDS011;63468;52.058;4.824;2023-03-20T09:04:23;25.35;;;11.80;;
74908;SDS011;63468;52.058;4.824;2023-03-20T09:06:49;20.55;;;9.90;;
74908;SDS011;63468;52.058;4.824;2023-03-20T09:09:15;19.73;;;9.27;;
74908;SDS011;63468;52.058;4.824;2023-03-20T09:11:44;22.83;;;9.30;;
74908;SDS011;63468;52.058;4.824;2023-03-20T09:14:10;17.92;;;9.07;;
74908;SDS011;63468;52.058;4.824;2023-03-20T09:16:35;22.50;;;9.18;;
74908;SDS011;63468;52.058;4.824;2023-03-20T09:19:00;20.38;;;8.98;;
74908;SDS011;63468;52.058;4.824;2023-03-20T09:21:26;19.42;;;9.38;;
74908;SDS011;63468;52.058;4.824;2023-03-20T09:23:51;20.23;;;9.48;;
74908;SDS011;63468;52.058;4.824;2023-03-20T09:26:16;18.13;;;9.23;;
74908;SDS011;63468;52.058;4.824;2023-03-20T09:28:41;19.52;;;8.60;;
74908;SDS011;63468;52.058;4.824;2023-03-20T09:31:07;18.60;;;8.93;;
74908;SDS011;63468;52.058;4.824;2023-03-20T09:33:32;22.27;;;9.10;;
74908;SDS011;63468;52.058;4.824;2023-03-20T09:35:57;20.90;;;10.13;;
74908;SDS011;63468;52.058;4.824;2023-03-20T09:38:23;19.38;;;8.38;;
74908;SDS011;63468;52.058;4.824;2023-03-20T09:43:18;16.35;;;8.98;;
74908;SDS011;63468;52.058;4.824;2023-03-20T09:48:34;18.67;;;9.40;;
74908;SDS011;63468;52.058;4.824;2023-03-20T09:51:14;24.40;;;9.77;;
74908;SDS011;63468;52.058;4.824;2023-03-20T09:53:54;22.23;;;9.45;;
74908;SDS011;63468;52.058;4.824;2023-03-20T09:56:22;19.10;;;9.35;;
74908;SDS011;63468;52.058;4.824;2023-03-20T09:59:10;22.10;;;9.98;;
74908;SDS011;63468;52.058;4.824;2023-03-20T10:04:20;22.55;;;10.70;;
74908;SDS011;63468;52.058;4.824;2023-03-20T10:06:47;21.00;;;9.65;;
74908;SDS011;63468;52.058;4.824;2023-03-20T10:12:08;26.85;;;11.27;;
74908;SDS011;63468;52.058;4.824;2023-03-20T10:20:09;26.90;;;11.23;;
74908;SDS011;63468;52.058;4.824;2023-03-20T10:22:37;22.95;;;11.00;;
74908;SDS011;63468;52.058;4.824;2023-03-20T10:27:38;22.95;;;11.73;;
74908;SDS011;63468;52.058;4.824;2023-03-20T10:30:21;23.50;;;11.77;;
74908;SDS011;63468;52.058;4.824;2023-03-20T10:38:30;25.63;;;13.40;;
74908;SDS011;63468;52.058;4.824;2023-03-20T10:41:01;22.67;;;13.07;;
74908;SDS011;63468;52.058;4.824;2023-03-20T10:43:31;32.63;;;14.75;;
74908;SDS011;63468;52.058;4.824;2023-03-20T10:46:00;26.97;;;13.47;;
74908;SDS011;63468;52.058;4.824;2023-03-20T10:48:36;29.08;;;12.82;;
74908;SDS011;63468;52.058;4.824;2023-03-20T10:51:03;26.73;;;13.27;;
74908;SDS011;63468;52.058;4.824;2023-03-20T10:53:36;26.27;;;14.55;;
74908;SDS011;63468;52.058;4.824;2023-03-20T10:56:06;21.63;;;13.35;;
74908;SDS011;63468;52.058;4.824;2023-03-20T10:58:35;24.75;;;12.38;;
74908;SDS011;63468;52.058;4.824;2023-03-20T11:01:04;23.63;;;12.32;;
74908;SDS011;63468;52.058;4.824;2023-03-20T11:03:30;26.15;;;13.70;;
74908;SDS011;63468;52.058;4.824;2023-03-20T11:05:58;25.17;;;13.48;;
74908;SDS011;63468;52.058;4.824;2023-03-20T11:08:29;25.02;;;14.57;;
74908;SDS011;63468;52.058;4.824;2023-03-20T11:10:59;35.85;;;13.95;;
74908;SDS011;63468;52.058;4.824;2023-03-20T11:13:29;24.77;;;13.55;;
74908;SDS011;63468;52.058;4.824;2023-03-20T11:15:55;23.80;;;13.30;;
74908;SDS011;63468;52.058;4.824;2023-03-20T11:18:23;22.88;;;13.13;;
74908;SDS011;63468;52.058;4.824;2023-03-20T11:20:50;32.47;;;14.35;;
74908;SDS011;63468;52.058;4.824;2023-03-20T11:23:18;27.52;;;13.27;;
74908;SDS011;63468;52.058;4.824;2023-03-20T11:25:57;30.25;;;14.20;;
74908;SDS011;63468;52.058;4.824;2023-03-20T11:28:35;32.13;;;13.77;;
74908;SDS011;63468;52.058;4.824;2023-03-20T11:31:03;28.77;;;12.82;;
74908;SDS011;63468;52.058;4.824;2023-03-20T11:33:39;31.00;;;13.82;;
74908;SDS011;63468;52.058;4.824;2023-03-20T11:36:11;28.67;;;12.93;;
74908;SDS011;63468;52.058;4.824;2023-03-20T11:41:47;31.88;;;13.77;;
74908;SDS011;63468;52.058;4.824;2023-03-20T11:46:54;30.05;;;13.40;;
74908;SDS011;63468;52.058;4.824;2023-03-20T11:49:21;32.83;;;14.93;;
74908;SDS011;63468;52.058;4.824;2023-03-20T11:51:48;27.35;;;13.52;;
74908;SDS011;63468;52.058;4.824;2023-03-20T11:54:19;27.80;;;13.70;;
74908;SDS011;63468;52.058;4.824;2023-03-20T11:56:51;27.20;;;12.63;;
74908;SDS011;63468;52.058;4.824;2023-03-20T11:59:18;25.98;;;12.80;;
74908;SDS011;63468;52.058;4.824;2023-03-20T12:01:50;25.23;;;13.15;;
74908;SDS011;63468;52.058;4.824;2023-03-20T12:04:33;27.92;;;13.30;;
74908;SDS011;63468;52.058;4.824;2023-03-20T12:07:13;27.48;;;14.25;;
74908;SDS011;63468;52.058;4.824;2023-03-20T12:20:34;31.40;;;14.13;;
74908;SDS011;63468;52.058;4.824;2023-03-20T12:25:41;30.95;;;15.75;;
74908;SDS011;63468;52.058;4.824;2023-03-20T12:28:19;35.28;;;17.65;;
74908;SDS011;63468;52.058;4.824;2023-03-20T12:35:58;33.97;;;15.15;;
74908;SDS011;63468;52.058;4.824;2023-03-20T12:38:31;32.47;;;16.60;;
74908;SDS011;63468;52.058;4.824;2023-03-20T12:40:59;28.63;;;14.50;;
74908;SDS011;63468;52.058;4.824;2023-03-20T12:43:40;30.58;;;15.48;;
74908;SDS011;63468;52.058;4.824;2023-03-20T12:46:25;34.83;;;17.35;;
74908;SDS011;63468;52.058;4.824;2023-03-20T12:49:08;27.98;;;14.32;;
74908;SDS011;63468;52.058;4.824;2023-03-20T12:54:53;31.58;;;13.40;;
74908;SDS011;63468;52.058;4.824;2023-03-20T12:58:02;27.38;;;13.60;;
74908;SDS011;63468;52.058;4.824;2023-03-20T13:00:47;25.92;;;15.27;;
74908;SDS011;63468;52.058;4.824;2023-03-20T13:03:33;28.85;;;14.60;;
74908;SDS011;63468;52.058;4.824;2023-03-20T13:14:05;25.95;;;15.68;;
74908;SDS011;63468;52.058;4.824;2023-03-20T13:16:44;27.40;;;13.23;;
74908;SDS011;63468;52.058;4.824;2023-03-20T13:22:09;33.28;;;14.57;;
74908;SDS011;63468;52.058;4.824;2023-03-20T13:24:44;28.63;;;15.07;;
74908;SDS011;63468;52.058;4.824;2023-03-20T13:30:24;29.05;;;15.20;;
74908;SDS011;63468;52.058;4.824;2023-03-20T13:35:33;32.10;;;17.50;;
74908;SDS011;63468;52.058;4.824;2023-03-20T13:38:20;30.13;;;15.70;;
74908;SDS011;63468;52.058;4.824;2023-03-20T13:40:49;26.55;;;15.15;;
74908;SDS011;63468;52.058;4.824;2023-03-20T13:43:34;29.13;;;15.70;;
74908;SDS011;63468;52.058;4.824;2023-03-20T13:46:07;29.25;;;15.95;;
74908;SDS011;63468;52.058;4.824;2023-03-20T13:48:39;30.63;;;16.27;;
74908;SDS011;63468;52.058;4.824;2023-03-20T13:51:12;34.47;;;17.60;;
74908;SDS011;63468;52.058;4.824;2023-03-20T13:53:49;30.10;;;15.75;;
74908;SDS011;63468;52.058;4.824;2023-03-20T14:02:03;30.13;;;17.33;;
74908;SDS011;63468;52.058;4.824;2023-03-20T14:04:36;25.40;;;14.98;;
74908;SDS011;63468;52.058;4.824;2023-03-20T14:07:14;26.17;;;14.13;;
74908;SDS011;63468;52.058;4.824;2023-03-20T14:09:54;28.55;;;15.68;;
74908;SDS011;63468;52.058;4.824;2023-03-20T14:12:23;29.30;;;16.17;;
74908;SDS011;63468;52.058;4.824;2023-03-20T14:19:49;25.10;;;15.93;;
74908;SDS011;63468;52.058;4.824;2023-03-20T14:24:55;30.63;;;16.40;;
74908;SDS011;63468;52.058;4.824;2023-03-20T14:27:26;27.50;;;15.98;;
74908;SDS011;63468;52.058;4.824;2023-03-20T14:29:53;34.38;;;17.27;;
74908;SDS011;63468;52.058;4.824;2023-03-20T14:34:44;32.90;;;16.63;;
74908;SDS011;63468;52.058;4.824;2023-03-20T14:40:10;26.58;;;15.73;;
74908;SDS011;63468;52.058;4.824;2023-03-20T14:42:46;30.75;;;16.65;;
74908;SDS011;63468;52.058;4.824;2023-03-20T14:53:28;33.55;;;18.30;;
74908;SDS011;63468;52.058;4.824;2023-03-20T14:58:44;27.35;;;16.83;;
74908;SDS011;63468;52.058;4.824;2023-03-20T15:01:15;34.13;;;17.65;;
74908;SDS011;63468;52.058;4.824;2023-03-20T15:03:46;35.88;;;17.55;;
74908;SDS011;63468;52.058;4.824;2023-03-20T15:06:15;33.75;;;17.05;;
74908;SDS011;63468;52.058;4.824;2023-03-20T15:08:46;34.40;;;16.70;;
74908;SDS011;63468;52.058;4.824;2023-03-20T15:11:15;32.03;;;16.10;;
74908;SDS011;63468;52.058;4.824;2023-03-20T15:13:40;33.70;;;16.17;;
74908;SDS011;63468;52.058;4.824;2023-03-20T15:16:08;29.55;;;16.63;;
74908;SDS011;63468;52.058;4.824;2023-03-20T15:18:44;33.70;;;16.50;;
74908;SDS011;63468;52.058;4.824;2023-03-20T15:21:17;39.20;;;18.48;;
74908;SDS011;63468;52.058;4.824;2023-03-20T15:23:52;43.25;;;18.85;;
74908;SDS011;63468;52.058;4.824;2023-03-20T15:26:18;35.60;;;18.58;;
74908;SDS011;63468;52.058;4.824;2023-03-20T15:28:44;32.85;;;17.05;;
74908;SDS011;63468;52.058;4.824;2023-03-20T15:33:56;31.25;;;16.90;;
74908;SDS011;63468;52.058;4.824;2023-03-20T15:36:24;33.78;;;17.98;;
74908;SDS011;63468;52.058;4.824;2023-03-20T15:38:51;31.02;;;17.77;;
74908;SDS011;63468;52.058;4.824;2023-03-20T15:41:27;30.55;;;18.13;;
74908;SDS011;63468;52.058;4.824;2023-03-20T15:44:01;43.95;;;19.73;;
74908;SDS011;63468;52.058;4.824;2023-03-20T15:49:26;32.85;;;18.80;;
74908;SDS011;63468;52.058;4.824;2023-03-20T15:51:52;36.35;;;18.58;;
74908;SDS011;63468;52.058;4.824;2023-03-20T15:54:18;33.97;;;19.63;;
74908;SDS011;63468;52.058;4.824;2023-03-20T15:56:44;36.30;;;19.92;;
74908;SDS011;63468;52.058;4.824;2023-03-20T15:59:15;41.00;;;19.83;;
74908;SDS011;63468;52.058;4.824;2023-03-20T16:01:43;33.90;;;19.77;;
74908;SDS011;63468;52.058;4.824;2023-03-20T16:04:10;40.72;;;19.52;;
74908;SDS011;63468;52.058;4.824;2023-03-20T16:06:43;39.47;;;20.00;;
74908;SDS011;63468;52.058;4.824;2023-03-20T16:09:11;33.80;;;19.70;;
74908;SDS011;63468;52.058;4.824;2023-03-20T16:11:38;37.53;;;20.45;;
74908;SDS011;63468;52.058;4.824;2023-03-20T16:14:06;40.30;;;19.85;;
74908;SDS011;63468;52.058;4.824;2023-03-20T16:16:33;35.28;;;19.38;;
74908;SDS011;63468;52.058;4.824;2023-03-20T16:19:02;36.72;;;19.10;;
74908;SDS011;63468;52.058;4.824;2023-03-20T16:21:29;37.85;;;18.85;;
74908;SDS011;63468;52.058;4.824;2023-03-20T16:23:58;41.75;;;19.42;;
74908;SDS011;63468;52.058;4.824;2023-03-20T16:26:25;35.10;;;20.42;;
74908;SDS011;63468;52.058;4.824;2023-03-20T16:28:52;35.75;;;18.70;;
74908;SDS011;63468;52.058;4.824;2023-03-20T16:31:21;39.45;;;19.15;;
74908;SDS011;63468;52.058;4.824;2023-03-20T16:33:49;34.60;;;18.25;;
74908;SDS011;63468;52.058;4.824;2023-03-20T16:36:15;35.03;;;18.13;;
74908;SDS011;63468;52.058;4.824;2023-03-20T16:38:56;38.15;;;19.35;;
74908;SDS011;63468;52.058;4.824;2023-03-20T16:41:36;36.70;;;17.20;;
74908;SDS011;63468;52.058;4.824;2023-03-20T16:44:13;40.25;;;18.52;;
74908;SDS011;63468;52.058;4.824;2023-03-20T16:49:48;34.15;;;20.63;;
74908;SDS011;63468;52.058;4.824;2023-03-20T16:52:14;36.85;;;18.25;;
74908;SDS011;63468;52.058;4.824;2023-03-20T16:54:40;34.45;;;18.65;;
74908;SDS011;63468;52.058;4.824;2023-03-20T16:57:12;36.75;;;18.60;;
74908;SDS011;63468;52.058;4.824;2023-03-20T16:59:39;35.25;;;18.73;;